Time;durP1;ratioP1;P1;durP2;ratioP2;P2;SDS_P1;SDS_P2;PMS_P1;PMS_P2;Temp;Humidity;BMP_temperature;BMP_pressure;BME280_temperature;BME280_humidity;BME280_pressure;Samples;Min_cycle;Max_cycle;Signal;HPM_P1;HPM_P2
2021/01/29 00:01:55;;;;;;;17.48;13.15;;;;;;;2.64;71.57;99956.09;5074602;28;20047;-76
2021/01/29 00:04:59;;;;;;;19.30;12.88;;;;;;;2.60;71.86;99954.56;5082686;28;20047;-77
2021/01/29 00:08:03;;;;;;;18.80;12.82;;;;;;;2.55;72.19;99935.44;5094204;28;20050;-77
2021/01/29 00:11:07;;;;;;;16.50;12.48;;;;;;;2.52;72.05;99931.19;5094774;28;20043;-79
2021/01/29 00:14:11;;;;;;;16.80;12.73;;;;;;;2.49;72.14;99935.84;5075906;28;20423;-77
2021/01/29 00:17:16;;;;;;;21.20;13.57;;;;;;;2.47;72.30;99940.34;5074729;28;20491;-79
2021/01/29 00:20:23;;;;;;;18.98;13.93;;;;;;;2.49;72.51;99935.84;5087998;28;20054;-76
2021/01/29 00:23:28;;;;;;;17.10;13.20;;;;;;;2.52;72.37;99935.63;5094084;28;20059;-78
2021/01/29 00:26:32;;;;;;;16.15;12.93;;;;;;;2.49;72.65;99926.09;5094481;28;20382;-76
2021/01/29 00:29:36;;;;;;;18.73;13.55;;;;;;;2.46;72.74;99921.00;5093702;28;20051;-77
2021/01/29 00:32:42;;;;;;;18.17;14.27;;;;;;;2.44;72.52;99916.75;5094430;28;20055;-77
2021/01/29 00:35:46;;;;;;;16.08;12.20;;;;;;;2.40;72.85;99899.31;5081772;28;20051;-77
2021/01/29 00:38:51;;;;;;;18.08;12.48;;;;;;;2.42;72.88;99903.56;5075066;28;20493;-76
2021/01/29 00:41:55;;;;;;;18.00;12.80;;;;;;;2.42;72.87;99894.81;5074091;28;20052;-77
2021/01/29 00:44:59;;;;;;;18.00;12.57;;;;;;;2.40;73.03;99886.06;5074283;28;20075;-77
2021/01/29 00:48:04;;;;;;;20.08;14.18;;;;;;;2.37;73.18;99881.81;5078907;28;20047;-76
2021/01/29 00:51:08;;;;;;;19.70;13.23;;;;;;;2.38;73.09;99877.38;5093351;28;20051;-78
2021/01/29 00:54:12;;;;;;;15.88;12.70;;;;;;;2.40;73.16;99881.63;5094237;28;20047;-77
2021/01/29 00:57:17;;;;;;;18.58;12.77;;;;;;;2.38;73.29;99874.72;5094339;28;20055;-78
2021/01/29 01:00:34;;;;;;;17.55;12.48;;;;;;;2.36;73.72;99866.91;5075757;28;20047;-77
2021/01/29 01:03:41;;;;;;;18.80;12.95;;;;;;;2.34;73.50;99868.78;5076869;28;20518;-78
2021/01/29 01:06:45;;;;;;;21.10;13.20;;;;;;;2.36;73.71;99858.09;5094210;28;20055;-78
2021/01/29 01:10:08;;;;;;;17.27;12.75;;;;;;;2.44;73.39;99853.19;5096847;28;20051;-77
2021/01/29 01:13:38;;;;;;;15.40;12.63;;;;;;;2.44;73.13;99853.19;5093227;28;20039;-78
2021/01/29 01:17:04;;;;;;;17.50;12.45;;;;;;;2.38;73.11;99864.13;5077306;28;20395;-76
2021/01/29 01:20:29;;;;;;;16.42;12.80;;;;;;;2.38;73.12;99853.53;5082066;28;20044;-76
2021/01/29 01:23:34;;;;;;;15.32;11.70;;;;;;;2.34;73.72;99841.44;5097417;28;20055;-74
2021/01/29 01:26:41;;;;;;;20.52;12.68;;;;;;;2.32;73.76;99830.13;5097574;28;20055;-78
2021/01/29 01:30:11;;;;;;;19.58;12.23;;;;;;;2.37;73.76;99841.28;5097733;28;20047;-77
2021/01/29 01:35:42;;;;;;;17.13;11.75;;;;;;;2.47;73.50;99826.47;5077221;28;20496;-77
2021/01/29 01:38:47;;;;;;;17.73;13.38;;;;;;;2.43;73.73;99811.72;5076139;28;20044;-76
2021/01/29 01:41:54;;;;;;;17.77;11.38;;;;;;;2.34;73.84;99822.91;5085172;28;20388;-75
2021/01/29 01:44:59;;;;;;;16.25;12.52;;;;;;;2.39;73.98;99818.19;5101490;28;20071;-78
2021/01/29 01:48:16;;;;;;;18.75;13.48;;;;;;;2.39;74.00;99805.81;5096635;28;20051;-77
2021/01/29 01:51:45;;;;;;;15.00;12.07;;;;;;;2.39;74.22;99802.28;5068428;28;20395;-79
2021/01/29 01:54:59;;;;;;;14.70;11.73;;;;;;;2.43;74.14;99791.41;5087770;28;20048;-79
2021/01/29 01:58:07;;;;;;;15.68;11.50;;;;;;;2.43;73.88;99796.69;5087651;28;20482;-76
2021/01/29 02:01:23;;;;;;;16.95;12.45;;;;;;;2.38;74.04;99809.38;5083265;28;20415;-75
2021/01/29 02:05:09;;;;;;;15.35;11.50;;;;;;;2.40;74.20;99798.69;5081685;28;20044;-77
2021/01/29 02:08:26;;;;;;;17.75;12.77;;;;;;;2.38;74.19;99788.19;5076066;28;20498;-79
2021/01/29 02:11:51;;;;;;;15.20;11.77;;;;;;;2.36;74.15;99791.88;5081114;28;20048;-76
2021/01/29 02:15:13;;;;;;;15.73;12.25;;;;;;;2.38;74.41;99790.84;5087782;28;20067;-77
2021/01/29 02:18:41;;;;;;;15.50;11.50;;;;;;;2.38;74.30;99790.00;5107126;28;20055;-77
2021/01/29 02:22:23;;;;;;;15.30;12.25;;;;;;;2.31;74.39;99804.56;5074900;28;20047;-78
2021/01/29 02:26:30;;;;;;;16.63;12.40;;;;;;;2.24;74.89;99796.16;4995282;28;20070;-78
2021/01/29 02:30:20;;;;;;;17.73;12.13;;;;;;;2.15;75.44;99798.53;5009538;28;20903;-77
2021/01/29 02:33:48;;;;;;;19.00;12.20;;;;;;;2.05;75.91;99797.41;5072366;28;20052;-77
2021/01/29 02:37:27;;;;;;;18.38;12.85;;;;;;;1.98;76.41;99807.50;5053413;28;20056;-75
2021/01/29 02:41:01;;;;;;;16.67;12.38;;;;;;;1.95;76.77;99803.25;5053647;28;20063;-76
2021/01/29 02:44:21;;;;;;;17.30;11.50;;;;;;;1.97;77.19;99803.19;5042388;28;20427;-77
2021/01/29 02:48:23;;;;;;;18.65;12.73;;;;;;;1.96;77.52;99789.09;5053899;28;20436;-76
2021/01/29 02:51:56;;;;;;;15.98;12.10;;;;;;;2.01;77.56;99787.94;5038956;28;20531;-77
2021/01/29 02:55:38;;;;;;;15.90;11.65;;;;;;;2.04;77.52;99782.47;5026842;28;20555;-77
2021/01/29 02:59:08;;;;;;;14.75;11.13;;;;;;;2.02;77.90;99785.22;5033757;28;20145;-77
2021/01/29 03:03:41;;;;;;;15.02;10.30;;;;;;;2.03;78.10;99780.75;5055920;28;20052;-78
2021/01/29 03:07:12;;;;;;;16.15;10.48;;;;;;;2.05;78.45;99792.13;5073135;28;20056;-78
2021/01/29 03:10:49;;;;;;;14.05;10.50;;;;;;;2.02;78.31;99790.50;5073746;28;20051;-76
2021/01/29 03:14:44;;;;;;;15.07;10.80;;;;;;;2.01;78.36;99798.53;5036816;28;20549;-77
2021/01/29 03:18:17;;;;;;;13.98;10.70;;;;;;;1.98;78.47;99804.84;5073310;28;20142;-74
2021/01/29 03:21:45;;;;;;;17.50;11.07;;;;;;;1.93;78.63;99786.63;5053190;28;20435;-77
2021/01/29 03:25:36;;;;;;;20.35;13.07;;;;;;;1.88;78.52;99796.63;5072439;28;20052;-78
2021/01/29 03:29:07;;;;;;;23.48;13.48;;;;;;;1.90;78.76;99799.22;5067966;28;20139;-77
2021/01/29 03:32:33;;;;;;;17.58;12.45;;;;;;;1.95;78.76;99794.50;5072615;28;20443;-78
2021/01/29 03:36:01;;;;;;;16.63;12.20;;;;;;;1.98;78.71;99800.41;5075527;28;20079;-76
2021/01/29 03:39:31;;;;;;;16.73;10.63;;;;;;;2.05;78.62;99797.41;5052859;28;20056;-76
2021/01/29 03:43:01;;;;;;;15.25;11.15;;;;;;;2.02;78.55;99776.41;5054360;28;20044;-77
2021/01/29 03:46:35;;;;;;;15.25;11.02;;;;;;;2.04;78.58;99774.53;5054404;28;20055;-77
2021/01/29 03:50:11;;;;;;;16.92;12.80;;;;;;;2.09;78.80;99786.53;5034542;28;20049;-78
2021/01/29 03:53:52;;;;;;;16.05;11.73;;;;;;;2.17;78.54;99786.06;5034638;28;20064;-76
2021/01/29 03:57:26;;;;;;;13.65;10.77;;;;;;;2.20;78.16;99793.81;5034369;28;20045;-78
2021/01/29 04:01:41;;;;;;;14.48;10.55;;;;;;;2.20;78.37;99799.09;5034603;28;20115;-77
2021/01/29 04:05:18;;;;;;;13.88;11.07;;;;;;;2.25;78.08;99803.16;5033966;28;20056;-78
2021/01/29 04:08:56;;;;;;;15.00;10.88;;;;;;;2.26;77.91;99793.41;5034102;28;20036;-75
2021/01/29 04:12:29;;;;;;;15.95;11.43;;;;;;;2.24;77.98;99792.66;5034410;28;20052;-78
2021/01/29 04:15:53;;;;;;;16.23;10.90;;;;;;;2.20;78.32;99776.09;5034131;28;20052;-77
2021/01/29 04:19:02;;;;;;;15.07;10.77;;;;;;;2.16;78.50;99761.38;5034298;28;20072;-78
2021/01/29 04:22:26;;;;;;;17.70;10.27;;;;;;;2.20;78.68;99759.41;5034217;28;20056;-80
2021/01/29 04:25:41;;;;;;;14.50;11.00;;;;;;;2.24;78.87;99769.69;5033613;28;20064;-77
2021/01/29 04:28:52;;;;;;;15.85;11.15;;;;;;;2.33;78.89;99774.41;5033373;28;20072;-77
2021/01/29 04:32:01;;;;;;;15.93;10.80;;;;;;;2.40;78.95;99769.56;5034004;28;20048;-78
2021/01/29 04:35:09;;;;;;;16.55;10.75;;;;;;;2.50;78.73;99762.72;5033595;28;20049;-79
2021/01/29 04:38:22;;;;;;;15.65;10.68;;;;;;;2.50;78.24;99749.47;5074016;28;20055;-77
2021/01/29 04:41:30;;;;;;;14.75;10.90;;;;;;;2.53;78.42;99730.75;5074064;28;20051;-78
2021/01/29 04:45:07;;;;;;;18.30;11.75;;;;;;;2.50;78.31;99715.03;5073283;28;20051;-77
2021/01/29 04:48:43;;;;;;;17.10;12.53;;;;;;;2.42;78.59;99698.81;5073912;28;20383;-76
2021/01/29 04:52:00;;;;;;;15.15;11.68;;;;;;;2.43;79.08;99716.41;5074129;28;20067;-77
2021/01/29 04:55:38;;;;;;;17.83;11.50;;;;;;;2.48;78.92;99746.09;5073868;28;20581;-76
2021/01/29 04:59:12;;;;;;;17.88;11.75;;;;;;;2.56;78.86;99743.78;5073758;28;20048;-78
2021/01/29 05:03:10;;;;;;;15.57;11.18;;;;;;;2.60;78.80;99754.09;5073697;28;20526;-78
2021/01/29 05:07:15;;;;;;;16.27;11.65;;;;;;;2.56;79.08;99736.72;5066213;28;20051;-78
2021/01/29 05:11:18;;;;;;;16.80;10.48;;;;;;;2.62;78.68;99746.88;5066855;28;20399;-78
2021/01/29 05:14:29;;;;;;;14.43;11.18;;;;;;;2.68;78.73;99726.25;5073676;28;20048;-78
2021/01/29 05:17:48;;;;;;;14.68;11.60;;;;;;;2.69;78.70;99710.25;5073688;28;20379;-78
2021/01/29 05:21:27;;;;;;;19.35;13.25;;;;;;;2.68;78.81;99732.41;5073222;28;20395;-78
2021/01/29 05:25:04;;;;;;;17.52;11.98;;;;;;;2.56;78.87;99743.78;5031431;28;20065;-77
2021/01/29 05:28:20;;;;;;;19.52;11.65;;;;;;;2.54;78.72;99712.09;5031480;28;20064;-77
2021/01/29 05:31:49;;;;;;;15.77;12.23;;;;;;;2.47;78.75;99707.28;5031528;28;20044;-74
2021/01/29 05:35:18;;;;;;;15.25;11.35;;;;;;;2.46;78.80;99682.63;5031202;28;20056;-76
2021/01/29 05:38:41;;;;;;;15.30;11.85;;;;;;;2.46;78.68;99690.56;5030989;28;20052;-78
2021/01/29 05:42:10;;;;;;;17.85;12.43;;;;;;;2.30;79.14;99671.31;5031628;28;20056;-74
2021/01/29 05:45:39;;;;;;;20.70;13.48;;;;;;;2.24;79.94;99673.53;5031371;28;20147;-76
2021/01/29 05:48:54;;;;;;;16.95;12.38;;;;;;;2.29;79.96;99682.03;5031039;28;20129;-78
2021/01/29 05:52:41;;;;;;;20.55;12.30;;;;;;;2.24;79.95;99655.00;5030895;28;20133;-76
2021/01/29 05:56:06;;;;;;;16.13;12.23;;;;;;;2.09;80.19;99648.91;5031944;28;20060;-74
2021/01/29 05:59:23;;;;;;;;;;;;;;;2.05;80.42;99649.19;5076724;28;20051;-76
2021/01/29 06:02:36;;;;;;;18.05;12.05;;;;;;;2.08;80.48;99663.06;5077080;28;19916;-79
2021/01/29 06:06:13;;;;;;;27.58;20.40;;;;;;;2.11;80.57;99672.59;5076343;28;20052;-78
2021/01/29 06:09:58;;;;;;;45.15;29.27;;;;;;;2.15;80.45;99690.84;5076678;28;20059;-77
2021/01/29 06:13:13;;;;;;;21.70;14.57;;;;;;;2.18;80.56;99673.91;5034868;28;20060;-77
2021/01/29 06:16:36;;;;;;;17.52;13.70;;;;;;;2.17;80.41;99675.72;5034926;28;20140;-78
2021/01/29 06:19:58;;;;;;;23.15;12.68;;;;;;;2.16;80.74;99679.31;5034511;28;20052;-78
2021/01/29 06:23:27;;;;;;;15.27;12.57;;;;;;;2.16;80.82;99654.63;5034690;28;20048;-77
2021/01/29 06:27:12;;;;;;;21.83;13.70;;;;;;;2.16;80.49;99641.41;5034058;28;20056;-76
2021/01/29 06:30:28;;;;;;;;;;;;;;;1.96;81.04;99630.31;5034815;28;20121;-75
2021/01/29 06:33:43;;;;;;;22.50;14.20;;;;;;;1.93;82.02;99619.06;5034684;28;19924;-76
2021/01/29 06:37:05;;;;;;;17.90;13.93;;;;;;;1.91;82.37;99626.25;5033678;28;20048;-78
2021/01/29 06:40:30;;;;;;;18.70;14.38;;;;;;;2.00;82.18;99624.81;5033667;28;20137;-75
2021/01/29 06:44:18;;;;;;;22.38;14.88;;;;;;;2.04;81.98;99636.91;5022783;28;20052;-76
2021/01/29 06:47:59;;;;;;;23.48;14.90;;;;;;;2.02;82.19;99652.03;5041106;28;20047;-78
2021/01/29 06:51:42;;;;;;;22.45;15.70;;;;;;;2.08;82.06;99633.09;5085728;28;20039;-77
2021/01/29 06:54:46;;;;;;;22.90;16.95;;;;;;;2.12;81.86;99626.69;5095115;28;20051;-75
2021/01/29 06:58:05;;;;;;;;;;;;;;;2.11;81.97;99627.63;5085270;28;20047;-76
2021/01/29 07:01:40;;;;;;;26.17;16.25;;;;;;;2.17;81.82;99614.00;5092121;28;19916;-72
2021/01/29 07:05:03;;;;;;;25.35;17.08;;;;;;;2.23;81.73;99624.16;5081553;28;20414;-71
2021/01/29 07:08:23;;;;;;;26.20;16.92;;;;;;;2.28;81.29;99636.16;5079673;28;20051;-72
2021/01/29 07:12:10;;;;;;;30.42;17.02;;;;;;;2.23;81.44;99643.56;5075720;28;20072;-70
2021/01/29 07:15:23;;;;;;;25.13;18.35;;;;;;;2.07;81.94;99658.75;5074722;28;20107;-73
2021/01/29 07:18:46;;;;;;;34.13;18.77;;;;;;;2.06;82.39;99661.47;5075464;28;20490;-74
2021/01/29 07:22:15;;;;;;;24.27;17.65;;;;;;;2.17;82.38;99685.47;5082417;28;20043;-74
2021/01/29 07:25:34;;;;;;;29.77;17.70;;;;;;;2.24;82.10;99681.47;5091726;28;20047;-72
2021/01/29 07:28:56;;;;;;;23.67;18.77;;;;;;;2.30;81.72;99670.47;5094385;28;20051;-74
2021/01/29 07:32:23;;;;;;;20.92;16.13;;;;;;;2.25;81.79;99691.09;5094829;28;20059;-71
2021/01/29 07:35:39;;;;;;;18.45;13.77;;;;;;;2.29;82.11;99701.41;5094456;28;20047;-73
2021/01/29 07:39:05;;;;;;;19.00;14.35;;;;;;;2.25;81.80;99714.91;5105171;28;20062;-71
2021/01/29 07:42:37;;;;;;;20.13;14.68;;;;;;;2.20;81.58;99733.75;5091923;28;20044;-74
2021/01/29 07:46:06;;;;;;;28.45;17.27;;;;;;;2.03;81.15;99728.69;5093377;28;20051;-77
2021/01/29 07:49:23;;;;;;;28.10;19.55;;;;;;;1.99;80.39;99713.94;5094293;28;20051;-74
2021/01/29 07:52:40;;;;;;;35.38;23.33;;;;;;;1.90;79.84;99704.78;5093901;28;20054;-76
2021/01/29 07:55:59;;;;;;;38.22;23.33;;;;;;;1.79;79.95;99691.38;5093380;28;20158;-73
2021/01/29 07:59:24;;;;;;;30.15;21.65;;;;;;;1.75;79.83;99681.09;5074236;28;20052;-74
2021/01/29 08:02:51;;;;;;;31.73;23.02;;;;;;;1.84;79.56;99704.31;5090109;28;20110;-73
2021/01/29 08:06:05;;;;;;;33.72;23.25;;;;;;;2.02;78.84;99711.13;5061432;28;20506;-81
2021/01/29 08:09:26;;;;;;;43.15;24.55;;;;;;;2.17;78.09;99718.09;5092492;28;20514;-74
2021/01/29 08:12:50;;;;;;;32.05;24.60;;;;;;;2.34;77.35;99724.94;5074366;28;20059;-82
2021/01/29 08:16:32;;;;;;;38.83;26.55;;;;;;;2.43;76.82;99734.94;5068645;28;20044;-81
2021/01/29 08:20:06;;;;;;;35.55;24.10;;;;;;;2.47;76.51;99736.44;5072230;28;20434;-77
2021/01/29 08:23:29;;;;;;;38.70;24.38;;;;;;;2.60;76.18;99726.75;5084426;28;20051;-78
2021/01/29 08:26:56;;;;;;;42.25;24.35;;;;;;;3.67;74.36;99722.06;5093741;28;20098;-78
2021/01/29 08:30:28;;;;;;;31.20;21.83;;;;;;;8.06;59.59;99687.06;5100382;28;20513;-77
2021/01/29 08:34:08;;;;;;;31.65;20.08;;;;;;;13.20;42.78;99608.63;5082929;28;20047;-81
2021/01/29 08:37:40;;;;;;;26.67;19.38;;;;;;;12.64;41.47;99609.44;5081989;28;20059;-77
2021/01/29 08:41:09;;;;;;;33.45;21.15;;;;;;;11.31;43.90;99631.63;5069663;28;20051;-74
2021/01/29 08:44:54;;;;;;;27.77;20.15;;;;;;;10.42;46.36;99615.56;5078984;28;20059;-78
2021/01/29 08:48:12;;;;;;;32.33;22.70;;;;;;;10.01;47.96;99625.97;5070746;28;20059;-80
2021/01/29 08:51:44;;;;;;;27.02;21.48;;;;;;;9.74;49.07;99616.06;5070241;28;20051;-77
2021/01/29 08:55:05;;;;;;;30.85;22.35;;;;;;;9.51;49.42;99622.78;5072465;28;20051;-77
2021/01/29 08:58:37;;;;;;;29.77;21.17;;;;;;;8.99;50.79;99641.06;5072864;28;20514;-76
2021/01/29 09:01:53;;;;;;;31.95;21.83;;;;;;;9.00;51.30;99645.44;5073215;28;20055;-75
2021/01/29 09:05:03;;;;;;;27.80;21.33;;;;;;;9.34;50.00;99624.38;5065895;28;20063;-77
2021/01/29 09:08:09;;;;;;;33.72;21.27;;;;;;;8.74;51.86;99619.38;5074999;28;20070;-76
2021/01/29 09:11:25;;;;;;;34.60;22.15;;;;;;;8.49;52.85;99605.56;5091391;28;20521;-78
2021/01/29 09:14:31;;;;;;;31.40;20.05;;;;;;;8.27;53.90;99596.97;5090555;28;20071;-76
2021/01/29 09:17:41;;;;;;;26.30;20.42;;;;;;;9.09;51.96;99584.81;5070821;28;20048;-77
2021/01/29 09:20:59;;;;;;;30.25;21.08;;;;;;;10.14;49.21;99563.00;5071352;28;20067;-77
2021/01/29 09:24:21;;;;;;;27.27;19.05;;;;;;;10.43;47.99;99563.63;5059541;28;20044;-77
2021/01/29 09:28:07;;;;;;;24.48;17.63;;;;;;;9.83;49.51;99565.09;5063843;28;20068;-78
2021/01/29 09:31:22;;;;;;;28.45;17.70;;;;;;;9.37;50.10;99569.69;5053494;28;20054;-75
2021/01/29 09:34:38;;;;;;;24.83;18.50;;;;;;;8.73;52.10;99553.47;5095438;28;20063;-76
2021/01/29 09:37:56;;;;;;;27.38;19.23;;;;;;;8.02;54.24;99547.53;5024479;28;20044;-80
2021/01/29 09:41:12;;;;;;;27.35;20.65;;;;;;;7.84;54.70;99566.06;5024686;28;20412;-80
2021/01/29 09:44:32;;;;;;;25.48;19.60;;;;;;;8.13;54.55;99578.59;5030579;28;20079;-76
2021/01/29 09:47:40;;;;;;;27.25;20.85;;;;;;;8.39;53.81;99561.91;5047478;28;20044;-77
2021/01/29 09:50:45;;;;;;;30.73;22.50;;;;;;;7.26;56.83;99584.66;5036416;28;20048;-75
2021/01/29 09:54:19;;;;;;;32.47;25.45;;;;;;;6.64;59.60;99576.66;5046790;28;20096;-76
2021/01/29 09:57:27;;;;;;;31.35;23.98;;;;;;;6.13;61.70;99603.13;5035000;28;20048;-77
2021/01/29 10:00:35;;;;;;;29.73;23.65;;;;;;;6.16;62.84;99614.41;5036183;28;20049;-77
2021/01/29 10:04:00;;;;;;;39.13;24.67;;;;;;;6.29;62.99;99599.09;5035980;28;20048;-76
2021/01/29 10:07:10;;;;;;;32.75;25.80;;;;;;;6.26;62.99;99635.81;5036100;28;20500;-75
2021/01/29 10:10:26;;;;;;;34.67;26.30;;;;;;;6.62;62.51;99631.94;5046467;28;20052;-75
2021/01/29 10:13:48;;;;;;;31.27;25.67;;;;;;;6.92;61.67;99637.34;5035895;28;20052;-74
2021/01/29 10:16:55;;;;;;;32.15;25.25;;;;;;;6.74;62.03;99618.41;5036100;28;20048;-76
2021/01/29 10:20:10;;;;;;;36.70;27.13;;;;;;;6.73;61.57;99627.41;5035709;28;20052;-77
2021/01/29 10:23:45;;;;;;;34.85;26.95;;;;;;;6.63;62.94;99634.47;5023562;28;20072;-77
2021/01/29 10:26:59;;;;;;;32.70;26.52;;;;;;;6.88;61.90;99644.78;5034931;28;20072;-74
2021/01/29 10:30:30;;;;;;;34.72;28.88;;;;;;;6.69;61.73;99627.78;5046286;28;20404;-76
2021/01/29 10:33:36;;;;;;;32.50;27.90;;;;;;;6.55;62.34;99634.25;5046187;28;20045;-73
2021/01/29 10:36:44;;;;;;;35.15;27.48;;;;;;;6.56;62.97;99622.63;5067187;28;20072;-72
2021/01/29 10:40:26;;;;;;;35.78;29.27;;;;;;;6.41;63.23;99619.41;5075629;28;20055;-78
2021/01/29 10:43:52;;;;;;;42.47;29.95;;;;;;;6.45;63.33;99623.50;5062837;28;20052;-79
2021/01/29 10:47:21;;;;;;;35.40;28.02;;;;;;;6.82;62.66;99649.78;5062879;28;20055;-76
2021/01/29 10:50:46;;;;;;;37.47;31.50;;;;;;;6.99;62.06;99647.38;5074208;28;20514;-78
2021/01/29 10:54:01;;;;;;;35.17;30.45;;;;;;;7.28;61.27;99652.09;5074273;28;20047;-76
2021/01/29 10:58:00;;;;;;;41.67;30.13;;;;;;;7.34;60.62;99631.03;5075182;28;20506;-77
2021/01/29 11:01:30;;;;;;;32.95;28.10;;;;;;;7.12;60.79;99632.03;5053676;28;20052;-77
2021/01/29 11:04:45;;;;;;;36.22;30.92;;;;;;;7.33;61.05;99620.50;5074157;28;20503;-75
2021/01/29 11:07:52;;;;;;;35.65;29.27;;;;;;;7.09;60.19;99621.63;5074848;28;20435;-75
2021/01/29 11:11:25;;;;;;;33.95;30.08;;;;;;;6.98;61.34;99612.84;5085850;28;20123;-78
2021/01/29 11:14:44;;;;;;;36.13;30.27;;;;;;;6.76;62.29;99576.47;5074397;28;20052;-79
2021/01/29 11:18:01;;;;;;;34.65;30.27;;;;;;;6.72;62.77;99583.03;5074561;28;20047;-75
2021/01/29 11:21:26;;;;;;;40.47;31.10;;;;;;;6.49;62.67;99594.78;5074785;28;20067;-77
2021/01/29 11:25:00;;;;;;;40.28;31.20;;;;;;;6.35;63.70;99609.25;5074243;28;20040;-78
2021/01/29 11:28:29;;;;;;;36.45;30.30;;;;;;;6.81;62.88;99594.75;5080034;28;20052;-79
2021/01/29 11:31:49;;;;;;;39.60;28.00;;;;;;;7.23;61.54;99583.91;5074338;28;20047;-76
2021/01/29 11:35:21;;;;;;;36.40;28.17;;;;;;;7.65;60.03;99579.31;5074481;28;20044;-78
2021/01/29 11:38:34;;;;;;;35.70;27.88;;;;;;;7.90;58.90;99561.97;5074032;28;20059;-77
2021/01/29 11:41:44;;;;;;;30.58;27.30;;;;;;;8.07;58.23;99545.28;5086413;28;20141;-75
2021/01/29 11:45:06;;;;;;;31.67;28.20;;;;;;;8.28;58.09;99548.69;5094106;28;20051;-80
2021/01/29 11:48:16;;;;;;;30.73;26.63;;;;;;;8.33;57.94;99535.75;5094221;28;20118;-75
2021/01/29 11:51:39;;;;;;;37.65;26.63;;;;;;;8.43;58.62;99536.59;5093683;28;20043;-79
2021/01/29 11:55:01;;;;;;;34.95;26.90;;;;;;;8.64;57.66;99517.72;5090472;28;20059;-74
2021/01/29 11:58:25;;;;;;;30.50;26.50;;;;;;;8.74;57.11;99513.19;5093004;28;20043;-72
2021/01/29 12:01:37;;;;;;;35.35;28.02;;;;;;;8.76;57.49;99511.25;5075183;28;20111;-80
2021/01/29 12:04:50;;;;;;;33.50;28.13;;;;;;;8.74;58.09;99507.03;5075745;28;20059;-77
2021/01/29 12:08:00;;;;;;;34.13;30.50;;;;;;;8.75;57.82;99508.69;5092950;28;20059;-78
2021/01/29 12:11:14;;;;;;;37.40;28.77;;;;;;;8.66;58.02;99514.91;5093647;28;20047;-74
2021/01/29 12:14:25;;;;;;;33.67;28.27;;;;;;;8.68;58.33;99518.28;5093554;28;20510;-77
2021/01/29 12:17:31;;;;;;;29.27;25.55;;;;;;;8.57;58.97;99489.84;5073356;28;20051;-78
2021/01/29 12:20:39;;;;;;;29.23;25.67;;;;;;;8.45;58.98;99507.88;5092310;28;20050;-75
2021/01/29 12:23:59;;;;;;;30.98;25.33;;;;;;;8.18;59.64;99506.88;5114051;28;20043;-81
2021/01/29 12:27:22;;;;;;;32.72;25.33;;;;;;;8.14;60.35;99508.16;5113741;28;20054;-78
2021/01/29 12:30:36;;;;;;;34.33;24.52;;;;;;;8.02;60.70;99482.53;5112508;28;20414;-78
2021/01/29 12:34:04;;;;;;;29.88;24.40;;;;;;;7.97;60.35;99461.59;5112967;28;20505;-78
2021/01/29 12:37:12;;;;;;;29.20;23.92;;;;;;;7.81;60.55;99439.91;5112957;28;20525;-76
2021/01/29 12:40:36;;;;;;;27.80;23.67;;;;;;;7.81;60.90;99437.22;5113330;28;20054;-78
2021/01/29 12:44:35;;;;;;;27.58;23.63;;;;;;;7.83;61.58;99429.91;5110904;28;20043;-73
2021/01/29 12:47:49;;;;;;;27.65;23.42;;;;;;;7.85;62.05;99414.63;5030580;28;20056;-75
2021/01/29 12:51:04;;;;;;;33.15;24.20;;;;;;;7.79;62.59;99401.81;5031266;28;20052;-74
2021/01/29 12:54:19;;;;;;;31.88;23.58;;;;;;;7.76;62.94;99412.75;5019746;28;20109;-77
2021/01/29 12:57:29;;;;;;;35.10;25.98;;;;;;;7.79;62.99;99388.47;5031087;28;20479;-73
2021/01/29 13:00:40;;;;;;;35.22;25.48;;;;;;;7.76;63.08;99372.69;5031350;28;20436;-74
2021/01/29 13:03:58;;;;;;;31.25;23.98;;;;;;;7.90;63.14;99366.09;5031188;28;20072;-76
2021/01/29 13:07:23;;;;;;;29.27;24.73;;;;;;;8.02;62.64;99368.47;5035201;28;20456;-76
2021/01/29 13:10:52;;;;;;;36.22;24.52;;;;;;;7.99;62.29;99355.41;5035498;28;20172;-73
2021/01/29 13:14:20;;;;;;;35.65;24.85;;;;;;;8.03;62.62;99356.78;5035552;28;20053;-75
2021/01/29 13:17:35;;;;;;;31.48;24.75;;;;;;;8.13;62.45;99360.28;5035413;28;20492;-74
2021/01/29 13:20:44;;;;;;;36.83;24.05;;;;;;;8.17;62.39;99396.44;5048250;28;20058;-73
2021/01/29 13:23:49;;;;;;;28.05;22.83;;;;;;;8.23;62.42;99384.31;5090793;28;20051;-74
2021/01/29 13:26:57;;;;;;;30.85;24.38;;;;;;;8.22;62.50;99371.97;5096561;28;20059;-78
2021/01/29 13:30:20;;;;;;;30.33;23.25;;;;;;;8.20;62.59;99364.06;5096761;28;20051;-78
2021/01/29 13:33:29;;;;;;;32.30;24.47;;;;;;;8.28;62.42;99369.59;5096434;28;20047;-76
2021/01/29 13:36:35;;;;;;;32.25;24.73;;;;;;;8.31;62.52;99376.47;5096334;28;20067;-77
2021/01/29 13:39:42;;;;;;;33.90;25.02;;;;;;;8.37;62.50;99371.38;5096336;28;20083;-75
2021/01/29 13:42:48;;;;;;;32.65;25.73;;;;;;;8.37;62.44;99352.66;5096128;28;20505;-74
2021/01/29 13:45:59;;;;;;;29.95;23.92;;;;;;;8.38;62.30;99354.38;5096717;28;20059;-81
2021/01/29 13:49:25;;;;;;;29.08;23.60;;;;;;;8.47;61.99;99360.66;5096171;28;20391;-73
2021/01/29 13:52:33;;;;;;;35.38;25.77;;;;;;;8.48;61.75;99360.53;5095920;28;20047;-75
2021/01/29 13:55:43;;;;;;;35.63;25.77;;;;;;;8.49;62.04;99362.19;5096287;28;20071;-74
2021/01/29 13:59:05;;;;;;;30.38;25.50;;;;;;;8.55;61.79;99352.75;5095680;28;20509;-73
2021/01/29 14:02:36;;;;;;;34.40;26.20;;;;;;;8.60;61.85;99344.28;5096388;28;20054;-73
2021/01/29 14:05:45;;;;;;;35.08;26.25;;;;;;;8.54;61.97;99342.22;5091204;28;20055;-75
2021/01/29 14:08:50;;;;;;;31.70;26.08;;;;;;;8.62;61.95;99331.59;5095988;28;20533;-74
2021/01/29 14:12:23;;;;;;;27.90;22.95;;;;;;;8.62;62.25;99318.22;5107101;28;20055;-74
2021/01/29 14:15:40;;;;;;;30.40;23.23;;;;;;;8.71;62.64;99317.34;5106596;28;20063;-77
2021/01/29 14:19:10;;;;;;;28.45;21.77;;;;;;;8.67;62.58;99308.78;5094808;28;20051;-75
2021/01/29 14:22:17;;;;;;;28.02;21.83;;;;;;;8.61;63.21;99311.22;5095923;28;20043;-78
2021/01/29 14:25:37;;;;;;;28.17;22.25;;;;;;;8.57;63.50;99309.84;5075781;28;20043;-73
2021/01/29 14:28:45;;;;;;;34.15;22.17;;;;;;;8.46;64.34;99306.34;5075471;28;20051;-74
2021/01/29 14:31:57;;;;;;;29.88;22.67;;;;;;;8.42;64.70;99304.09;5075282;28;20395;-74
2021/01/29 14:35:11;;;;;;;27.42;21.05;;;;;;;8.43;64.88;99295.09;5075645;28;20506;-77
2021/01/29 14:38:44;;;;;;;29.85;20.30;;;;;;;8.38;65.09;99290.19;5075374;28;20115;-75
2021/01/29 14:42:21;;;;;;;28.40;23.00;;;;;;;8.35;65.54;99281.59;5075325;28;20047;-74
2021/01/29 14:46:00;;;;;;;27.52;21.45;;;;;;;8.34;65.78;99274.59;5075538;28;20399;-76
2021/01/29 14:49:24;;;;;;;27.73;21.25;;;;;;;8.30;65.80;99260.66;5074986;28;20051;-76
2021/01/29 14:52:54;;;;;;;28.45;21.08;;;;;;;8.32;66.23;99263.22;5074988;28;20048;-74
2021/01/29 14:56:38;;;;;;;29.23;21.70;;;;;;;8.19;66.94;99268.84;5074988;28;20404;-75
2021/01/29 14:59:50;;;;;;;27.15;21.55;;;;;;;8.21;67.31;99272.22;5069814;28;20071;-71
2021/01/29 15:03:02;;;;;;;26.00;21.83;;;;;;;8.17;67.71;99283.34;5074933;28;20052;-76
2021/01/29 15:06:07;;;;;;;25.58;22.00;;;;;;;8.19;67.88;99271.53;5074947;28;20059;-73
2021/01/29 15:09:17;;;;;;;28.20;21.30;;;;;;;8.20;67.83;99270.50;5074626;28;20059;-79
2021/01/29 15:12:22;;;;;;;28.60;22.67;;;;;;;8.20;68.05;99269.66;5074744;28;20059;-75
2021/01/29 15:15:26;;;;;;;27.50;23.05;;;;;;;8.16;68.15;99260.28;5074805;28;20055;-76
2021/01/29 15:18:38;;;;;;;26.27;23.20;;;;;;;8.11;68.39;99268.72;5074223;28;20044;-75
2021/01/29 15:21:43;;;;;;;29.75;23.42;;;;;;;8.06;68.66;99271.00;5074246;28;20068;-77
2021/01/29 15:24:51;;;;;;;25.45;22.83;;;;;;;8.05;68.92;99277.31;5073630;28;20483;-74
2021/01/29 15:28:29;;;;;;;27.88;23.27;;;;;;;8.03;68.85;99268.59;5079833;28;20509;-78
2021/01/29 15:31:42;;;;;;;29.23;24.10;;;;;;;7.99;69.15;99261.88;5101287;28;20047;-74
2021/01/29 15:35:05;;;;;;;33.53;23.87;;;;;;;7.96;68.90;99266.66;5094188;28;20051;-75
2021/01/29 15:38:13;;;;;;;27.40;23.95;;;;;;;7.95;69.25;99279.16;5094407;28;20289;-78
2021/01/29 15:41:39;;;;;;;30.65;24.60;;;;;;;7.83;69.58;99280.31;5094452;28;20051;-77
2021/01/29 15:44:50;;;;;;;28.10;24.75;;;;;;;7.81;69.49;99267.13;5094016;28;20043;-74